Time;durP1;ratioP1;P1;durP2;ratioP2;P2;SDS_P1;SDS_P2;PMS_P1;PMS_P2;Temp;Humidity;BMP_temperature;BMP_pressure;BME280_temperature;BME280_humidity;BME280_pressure;Samples;Min_cycle;Max_cycle;Signal;HPM_P1;HPM_P2
2023/01/03 00:01:16;;;;;;;12.50;6.93;;;;;;;2.91;100.00;102431.06;5031245;28;20040;-69
2023/01/03 00:03:42;;;;;;;23.90;7.90;;;;;;;2.86;100.00;102432.41;5031871;28;20568;-70
2023/01/03 00:06:28;;;;;;;13.13;7.30;;;;;;;2.83;100.00;102432.19;5035534;28;20059;-69
2023/01/03 00:08:55;;;;;;;11.98;7.45;;;;;;;2.80;100.00;102431.97;5024505;28;20037;-69
2023/01/03 00:12:22;;;;;;;11.23;6.85;;;;;;;2.83;100.00;102432.19;5032431;28;20037;-72
2023/01/03 00:14:12;;;;;;;18.58;7.40;;;;;;;2.80;100.00;102431.97;5019937;28;20064;-69
2023/01/03 00:16:37;;;;;;;12.23;6.28;;;;;;;2.74;100.00;102427.22;5034354;28;20033;-70
2023/01/03 00:19:07;;;;;;;13.98;6.60;;;;;;;2.75;100.00;102435.91;5028176;28;20018;-70
2023/01/03 00:21:33;;;;;;;20.30;6.45;;;;;;;2.69;100.00;102429.47;5031104;28;20025;-69
2023/01/03 00:23:58;;;;;;;14.85;6.72;;;;;;;2.72;100.00;102435.69;5037419;28;20023;-70
2023/01/03 00:26:23;;;;;;;12.10;7.55;;;;;;;2.73;100.00;102434.88;5036100;28;20506;-70
2023/01/03 00:28:49;;;;;;;13.07;7.03;;;;;;;2.76;100.00;102437.72;5031796;28;20078;-69
2023/01/03 00:31:14;;;;;;;14.45;6.40;;;;;;;2.70;100.00;102439.09;5037008;28;20021;-71
2023/01/03 00:33:40;;;;;;;14.00;7.65;;;;;;;2.66;100.00;102439.66;5026802;28;20025;-69
2023/01/03 00:36:08;;;;;;;16.15;7.70;;;;;;;2.68;100.00;102443.25;5029656;28;20067;-68
2023/01/03 00:38:34;;;;;;;13.63;7.35;;;;;;;2.63;100.00;102442.03;5031719;28;20033;-69
2023/01/03 00:41:08;;;;;;;9.32;6.38;;;;;;;2.62;100.00;102442.81;5029889;28;20049;-69
2023/01/03 00:43:34;;;;;;;14.82;7.13;;;;;;;2.61;100.00;102446.19;5028418;28;20041;-70
2023/01/03 00:46:00;;;;;;;12.75;7.30;;;;;;;2.60;100.00;102454.75;5029781;28;20037;-70
2023/01/03 00:48:26;;;;;;;15.20;6.68;;;;;;;2.59;100.00;102441.66;5030783;28;20420;-69
2023/01/03 00:50:52;;;;;;;15.40;7.97;;;;;;;2.63;100.00;102449.81;5029838;28;20017;-69
2023/01/03 00:53:18;;;;;;;17.40;7.57;;;;;;;2.58;100.00;102445.97;5030336;28;20041;-71
2023/01/03 00:55:44;;;;;;;10.77;7.07;;;;;;;2.60;100.00;102443.47;5031276;28;20030;-69
2023/01/03 00:58:09;;;;;;;11.82;7.60;;;;;;;2.63;100.00;102444.63;5030858;28;20370;-69
2023/01/03 01:00:34;;;;;;;12.27;7.60;;;;;;;2.67;100.00;102451.84;5027769;28;20034;-71
2023/01/03 01:03:00;;;;;;;12.63;8.13;;;;;;;2.68;100.00;102445.84;5030052;28;20457;-69
2023/01/03 01:05:27;;;;;;;12.50;7.40;;;;;;;2.67;100.00;102446.66;5029458;28;20284;-68
2023/01/03 01:07:53;;;;;;;21.13;9.00;;;;;;;2.67;100.00;102445.72;5030722;28;20108;-69
2023/01/03 01:10:19;;;;;;;11.07;6.50;;;;;;;2.63;100.00;102443.69;5032714;28;20160;-69
2023/01/03 01:12:45;;;;;;;16.13;7.95;;;;;;;2.64;100.00;102445.50;5029337;28;20029;-69
2023/01/03 01:15:11;;;;;;;15.07;8.07;;;;;;;2.63;100.00;102443.69;5031553;28;20028;-69
2023/01/03 01:17:37;;;;;;;12.20;7.65;;;;;;;2.62;100.00;102445.41;5029154;28;20029;-70
2023/01/03 01:20:04;;;;;;;13.63;7.95;;;;;;;2.59;100.00;102444.25;5031315;28;20440;-70
2023/01/03 01:22:29;;;;;;;14.80;7.57;;;;;;;2.55;100.00;102453.53;5028925;28;20029;-70
2023/01/03 01:24:55;;;;;;;17.13;8.13;;;;;;;2.53;100.00;102456.00;5030432;28;20075;-70
2023/01/03 01:27:20;;;;;;;21.60;8.35;;;;;;;2.57;100.00;102445.84;5029035;28;20040;-72
2023/01/03 01:29:46;;;;;;;13.07;7.47;;;;;;;2.58;100.00;102440.78;5029970;28;20477;-69
2023/01/03 01:32:11;;;;;;;14.10;7.55;;;;;;;2.56;100.00;102450.13;5030561;28;20079;-69
2023/01/03 01:34:37;;;;;;;13.43;7.50;;;;;;;2.58;100.00;102455.44;5029814;28;20025;-70
2023/01/03 01:37:02;;;;;;;14.88;8.05;;;;;;;2.51;100.00;102459.31;5029252;28;20116;-69
2023/01/03 01:39:28;;;;;;;11.82;7.00;;;;;;;2.49;100.00;102460.84;5031153;28;20103;-69
2023/01/03 01:44:51;;;;;;;19.55;7.80;;;;;;;2.50;100.00;102468.78;5029747;28;20049;-70
2023/01/03 01:47:35;;;;;;;14.05;8.02;;;;;;;2.49;100.00;102466.06;5029173;28;20080;-70
2023/01/03 01:50:35;;;;;;;16.33;8.32;;;;;;;2.52;100.00;102474.06;5016693;28;20488;-69
2023/01/03 01:53:08;;;;;;;13.32;7.60;;;;;;;2.54;100.00;102475.09;5027949;28;20068;-69
2023/01/03 01:55:49;;;;;;;14.88;7.50;;;;;;;2.59;100.00;102472.84;5030170;28;20405;-70
2023/01/03 01:58:15;;;;;;;18.75;8.23;;;;;;;2.58;100.00;102479.75;5029869;28;20044;-70
2023/01/03 02:00:42;;;;;;;15.70;7.60;;;;;;;2.51;100.00;102480.09;5029265;28;20029;-70
2023/01/03 02:03:09;;;;;;;15.35;7.85;;;;;;;2.52;100.00;102487.06;5028916;28;20079;-70
2023/01/03 02:05:37;;;;;;;13.60;8.02;;;;;;;2.50;100.00;102486.97;5028984;28;20429;-72
2023/01/03 02:08:03;;;;;;;13.48;7.30;;;;;;;2.56;100.00;102488.22;5026077;28;20018;-70
2023/01/03 02:10:48;;;;;;;16.52;8.05;;;;;;;2.54;100.00;102488.09;5030201;28;20034;-70
2023/01/03 02:13:43;;;;;;;15.93;7.63;;;;;;;2.54;100.00;102482.91;5023141;28;20484;-69
2023/01/03 02:16:30;;;;;;;16.65;7.70;;;;;;;2.47;100.00;102478.00;5033479;28;20485;-69
2023/01/03 02:18:58;;;;;;;19.42;7.65;;;;;;;2.42;100.00;102476.78;5033062;28;20061;-69
2023/01/03 02:21:33;;;;;;;14.57;7.80;;;;;;;2.35;100.00;102476.31;5033583;28;20061;-71
2023/01/03 02:24:35;;;;;;;20.73;8.50;;;;;;;2.39;100.00;102468.72;5033832;28;20037;-70
2023/01/03 02:27:24;;;;;;;14.90;7.75;;;;;;;2.31;100.00;102474.25;5039039;28;20034;-71
2023/01/03 02:30:15;;;;;;;15.10;7.78;;;;;;;2.31;100.00;102461.28;5046571;28;20038;-72
2023/01/03 02:33:08;;;;;;;19.20;8.18;;;;;;;2.28;100.00;102474.03;5018242;28;20167;-70
2023/01/03 02:36:06;;;;;;;14.55;8.75;;;;;;;2.24;100.00;102469.41;5014833;28;20052;-71
2023/01/03 02:38:47;;;;;;;14.73;8.25;;;;;;;2.23;100.00;102470.16;5033215;28;20049;-69
2023/01/03 02:41:39;;;;;;;14.98;8.15;;;;;;;2.20;100.00;102467.34;5019980;28;20041;-70
2023/01/03 02:44:12;;;;;;;14.20;8.30;;;;;;;2.17;100.00;102473.22;5034064;28;20036;-70
2023/01/03 02:46:53;;;;;;;15.25;8.63;;;;;;;2.13;100.00;102467.66;5034728;28;20148;-70
2023/01/03 02:49:29;;;;;;;15.35;7.82;;;;;;;2.07;100.00;102470.69;5032410;28;20029;-70
2023/01/03 02:52:00;;;;;;;14.10;7.90;;;;;;;2.03;100.00;102466.03;5033878;28;20076;-70
2023/01/03 02:54:54;;;;;;;16.35;8.88;;;;;;;2.06;100.00;102470.56;5032756;28;20501;-68
2023/01/03 02:57:26;;;;;;;19.77;8.52;;;;;;;2.05;100.00;102461.88;5033322;28;20485;-70
2023/01/03 03:00:02;;;;;;;18.23;7.60;;;;;;;2.02;100.00;102454.75;5030748;28;20379;-71
2023/01/03 03:02:31;;;;;;;22.50;8.30;;;;;;;1.95;100.00;102460.25;5033149;28;20073;-71
2023/01/03 03:05:01;;;;;;;14.52;7.50;;;;;;;1.91;100.00;102458.19;5032585;28;20030;-70
2023/01/03 03:07:32;;;;;;;18.48;7.82;;;;;;;1.90;100.00;102463.25;5032573;28;20036;-70
2023/01/03 03:15:34;;;;;;;18.17;8.85;;;;;;;1.94;100.00;102463.66;5029210;28;20072;-71
2023/01/03 03:18:06;;;;;;;22.85;9.27;;;;;;;1.93;100.00;102467.03;5029418;28;20045;-69
2023/01/03 03:26:33;;;;;;;22.95;10.35;;;;;;;2.01;100.00;102460.72;5030905;28;20037;-71
2023/01/03 03:29:00;;;;;;;;;;;;;;;1.95;100.00;102460.25;5030672;28;20182;-71
2023/01/03 03:31:42;;;;;;;19.45;10.18;;;;;;;1.94;100.00;102457.53;5033831;28;19912;-71
2023/01/03 03:34:10;;;;;;;23.45;10.93;;;;;;;1.95;100.00;102449.84;5030158;28;20493;-69
2023/01/03 03:36:58;;;;;;;29.85;12.07;;;;;;;1.92;100.00;102444.44;5032253;28;20477;-70
2023/01/03 03:45:15;;;;;;;25.85;10.82;;;;;;;1.83;100.00;102441.13;5026952;28;20040;-69
2023/01/03 03:47:51;;;;;;;25.75;10.90;;;;;;;1.80;100.00;102434.00;5030557;28;20036;-70
2023/01/03 03:50:16;;;;;;;22.00;12.00;;;;;;;1.77;100.00;102432.88;5034205;28;20116;-70
2023/01/03 03:52:46;;;;;;;26.38;11.85;;;;;;;1.71;100.00;102438.50;5033458;28;20136;-70
2023/01/03 03:55:19;;;;;;;33.42;12.18;;;;;;;1.69;100.00;102433.16;5034007;28;20027;-70
2023/01/03 03:58:00;;;;;;;30.00;13.20;;;;;;;1.68;100.00;102439.16;5032993;28;20044;-69
2023/01/03 04:00:30;;;;;;;28.35;13.88;;;;;;;1.77;100.00;102441.56;5030418;28;20051;-70
2023/01/03 04:02:58;;;;;;;41.53;14.93;;;;;;;1.82;100.00;102447.13;5031672;28;20033;-70
2023/01/03 04:05:26;;;;;;;28.58;13.68;;;;;;;1.82;100.00;102453.19;5032720;28;20041;-69
2023/01/03 04:07:52;;;;;;;32.47;14.55;;;;;;;1.81;100.00;102469.56;5033671;28;20025;-71
2023/01/03 04:10:19;;;;;;;45.10;17.23;;;;;;;1.85;100.00;102465.53;5032520;28;20029;-70
2023/01/03 04:12:48;;;;;;;50.08;19.65;;;;;;;1.97;100.00;102469.06;5033439;28;20028;-71
2023/01/03 04:15:14;;;;;;;66.50;22.45;;;;;;;2.07;100.00;102474.97;5026504;28;20042;-69
2023/01/03 04:17:40;;;;;;;73.32;24.63;;;;;;;2.11;100.00;102472.72;5030291;28;20033;-70
2023/01/03 04:20:06;;;;;;;77.63;25.70;;;;;;;2.17;100.00;102472.28;5031801;28;20026;-69
2023/01/03 04:22:31;;;;;;;69.78;23.52;;;;;;;2.22;100.00;102470.06;5032896;28;20017;-69
2023/01/03 04:24:56;;;;;;;67.20;24.45;;;;;;;2.27;100.00;102467.03;5036388;28;20103;-69
2023/01/03 04:27:22;;;;;;;92.35;26.55;;;;;;;2.31;100.00;102463.88;5034439;28;20064;-69
2023/01/03 04:29:47;;;;;;;89.93;26.50;;;;;;;2.35;100.00;102465.03;5031151;28;20033;-69
2023/01/03 04:32:12;;;;;;;81.22;29.63;;;;;;;2.36;100.00;102465.13;5033310;28;20064;-71
2023/01/03 04:34:37;;;;;;;76.25;28.73;;;;;;;2.43;100.00;102465.59;5032472;28;20060;-70
2023/01/03 04:37:03;;;;;;;77.18;26.27;;;;;;;2.44;100.00;102457.94;5030778;28;20116;-71
2023/01/03 04:39:28;;;;;;;89.60;27.75;;;;;;;2.45;100.00;102453.63;5031906;28;20057;-69
2023/01/03 04:41:53;;;;;;;68.47;26.13;;;;;;;2.42;100.00;102459.50;5032189;28;20025;-70
2023/01/03 04:44:19;;;;;;;63.15;23.08;;;;;;;2.40;100.00;102460.16;5031099;28;20032;-69
2023/01/03 04:46:44;;;;;;;67.50;26.48;;;;;;;2.38;100.00;102452.25;5033909;28;20326;-68
2023/01/03 04:49:10;;;;;;;71.95;28.25;;;;;;;2.35;100.00;102455.53;5041974;28;20040;-70
2023/01/03 04:51:35;;;;;;;63.42;25.50;;;;;;;2.34;100.00;102458.91;5032636;28;20056;-70
2023/01/03 04:54:02;;;;;;;58.22;24.83;;;;;;;2.31;100.00;102452.59;5032198;28;20045;-69
2023/01/03 04:56:36;;;;;;;49.33;22.70;;;;;;;2.29;100.00;102452.47;5031970;28;20029;-70
2023/01/03 04:59:02;;;;;;;56.75;25.05;;;;;;;2.29;100.00;102446.34;5032019;28;20083;-70
2023/01/03 05:01:27;;;;;;;65.97;24.98;;;;;;;2.28;100.00;102454.94;5030983;28;20385;-69
2023/01/03 05:03:58;;;;;;;69.53;26.45;;;;;;;2.24;100.00;102448.63;5064617;28;20048;-69
2023/01/03 05:06:24;;;;;;;60.50;24.65;;;;;;;2.24;100.00;102450.28;5032092;28;20108;-70
2023/01/03 05:08:50;;;;;;;61.13;26.45;;;;;;;2.23;100.00;102444.19;5036697;28;20359;-69
2023/01/03 05:11:15;;;;;;;52.30;24.92;;;;;;;2.25;100.00;102440.03;5030490;28;20059;-69
2023/01/03 05:13:41;;;;;;;60.97;26.75;;;;;;;2.29;100.00;102436.88;5031536;28;20025;-69
2023/01/03 05:16:11;;;;;;;58.17;26.92;;;;;;;2.31;100.00;102434.41;5034316;28;20104;-70
2023/01/03 05:18:37;;;;;;;61.47;27.05;;;;;;;2.32;100.00;102442.31;5032610;28;20041;-70
2023/01/03 05:26:40;;;;;;;63.28;27.92;;;;;;;2.38;100.00;102447.06;5027288;28;20496;-69
2023/01/03 05:29:07;;;;;;;56.63;27.55;;;;;;;2.38;100.00;102444.47;5030729;28;20064;-69
2023/01/03 05:31:33;;;;;;;58.03;28.15;;;;;;;2.42;100.00;102441.31;5029984;28;20026;-70
2023/01/03 05:33:59;;;;;;;59.17;28.92;;;;;;;2.48;100.00;102444.38;5029936;28;20023;-69
2023/01/03 05:36:24;;;;;;;58.42;29.67;;;;;;;2.53;100.00;102437.81;5031806;28;20037;-70
2023/01/03 05:38:49;;;;;;;68.13;30.10;;;;;;;2.61;100.00;102433.19;5029972;28;20022;-71
2023/01/03 05:41:58;;;;;;;76.38;32.83;;;;;;;2.68;100.00;102427.66;5024727;28;20030;-69
2023/01/03 05:44:00;;;;;;;62.13;31.75;;;;;;;2.75;100.00;102433.31;5029903;28;20044;-70
2023/01/03 05:46:25;;;;;;;73.55;30.15;;;;;;;2.80;100.00;102434.56;5029599;28;20030;-71
2023/01/03 05:48:51;;;;;;;65.40;30.98;;;;;;;2.84;100.00;102434.91;5042681;28;20029;-69
2023/01/03 05:51:16;;;;;;;63.55;31.38;;;;;;;2.84;100.00;102424.50;5034116;28;20036;-71
2023/01/03 05:53:41;;;;;;;59.60;29.45;;;;;;;2.88;100.00;102420.44;5034498;28;20458;-70
2023/01/03 05:56:07;;;;;;;66.38;30.08;;;;;;;2.89;100.00;102422.25;5032934;28;20163;-70
2023/01/03 05:58:32;;;;;;;62.35;30.25;;;;;;;2.90;100.00;102418.84;5034579;28;20442;-70
2023/01/03 06:00:57;;;;;;;58.30;29.27;;;;;;;2.93;100.00;102419.09;5032634;28;20033;-69
2023/01/03 06:03:23;;;;;;;70.03;30.30;;;;;;;2.94;100.00;102426.06;5034491;28;20044;-69
2023/01/03 06:05:48;;;;;;;67.63;31.58;;;;;;;2.97;100.00;102422.78;5033881;28;20424;-69
2023/01/03 06:08:13;;;;;;;71.60;31.02;;;;;;;3.00;100.00;102420.44;5034704;28;20033;-70
2023/01/03 06:10:39;;;;;;;58.00;31.30;;;;;;;3.03;100.00;102424.13;5032033;28;20064;-70
2023/01/03 06:13:05;;;;;;;60.95;31.38;;;;;;;3.03;100.00;102426.75;5033054;28;20037;-69
2023/01/03 06:15:30;;;;;;;66.75;30.35;;;;;;;3.07;100.00;102432.19;5031556;28;20036;-69
2023/01/03 06:17:59;;;;;;;65.78;30.80;;;;;;;3.09;100.00;102433.19;5033589;28;20095;-69
2023/01/03 06:20:28;;;;;;;60.38;30.30;;;;;;;3.09;100.00;102434.09;5032268;28;20473;-70
2023/01/03 06:22:53;;;;;;;64.20;31.02;;;;;;;3.10;100.00;102427.19;5032843;28;20037;-72
2023/01/03 06:25:20;;;;;;;59.85;30.73;;;;;;;3.12;100.00;102428.19;5033739;28;20034;-70
2023/01/03 06:27:45;;;;;;;62.10;28.27;;;;;;;3.13;100.00;102430.03;5033769;28;20025;-69
2023/01/03 06:30:11;;;;;;;53.75;28.48;;;;;;;3.13;100.00;102440.41;5043999;28;20429;-69
2023/01/03 06:32:37;;;;;;;59.72;29.00;;;;;;;3.14;100.00;102444.84;5033284;28;20025;-70
2023/01/03 06:35:03;;;;;;;69.60;29.33;;;;;;;3.15;100.00;102444.06;5032267;28;20021;-70
2023/01/03 06:37:28;;;;;;;56.50;28.70;;;;;;;3.17;100.00;102439.84;5034016;28;20057;-69
2023/01/03 06:39:53;;;;;;;49.63;27.05;;;;;;;3.17;100.00;102438.19;5031194;28;20103;-69
2023/01/03 06:53:18;;;;;;;63.20;26.65;;;;;;;3.43;100.00;102415.72;5033112;28;20444;-70
2023/01/03 06:55:44;;;;;;;57.45;26.67;;;;;;;3.52;100.00;102418.06;5033028;28;20429;-70
2023/01/03 06:58:11;;;;;;;51.53;24.90;;;;;;;3.58;100.00;102420.19;5033885;28;20461;-69
2023/01/03 07:00:39;;;;;;;62.75;25.73;;;;;;;3.62;100.00;102417.94;5031822;28;20044;-69
2023/01/03 07:03:05;;;;;;;55.45;25.20;;;;;;;3.69;100.00;102429.63;5032027;28;20029;-69
2023/01/03 07:05:30;;;;;;;57.38;26.08;;;;;;;3.71;100.00;102421.13;5033478;28;20025;-70
2023/01/03 07:07:56;;;;;;;51.40;23.33;;;;;;;3.77;100.00;102424.97;5032619;28;20108;-71
2023/01/03 07:10:22;;;;;;;51.45;22.92;;;;;;;3.78;100.00;102427.69;5030669;28;20544;-72
2023/01/03 07:15:31;;;;;;;49.08;24.95;;;;;;;3.83;100.00;102428.03;5033367;28;20083;-70
2023/01/03 07:17:57;;;;;;;46.17;23.65;;;;;;;3.84;100.00;102422.03;5032637;28;20477;-71
2023/01/03 07:20:22;;;;;;;51.00;24.65;;;;;;;3.85;100.00;102434.22;5030761;28;20017;-70
2023/01/03 07:22:47;;;;;;;43.75;23.60;;;;;;;3.88;100.00;102432.75;5035620;28;20028;-69
2023/01/03 07:25:13;;;;;;;42.03;24.23;;;;;;;3.86;100.00;102425.63;5032813;28;20434;-69
2023/01/03 07:27:38;;;;;;;43.60;21.98;;;;;;;3.85;100.00;102421.22;5029271;28;20462;-71
2023/01/03 07:30:04;;;;;;;43.85;23.60;;;;;;;3.83;100.00;102425.41;5030126;28;20029;-71
2023/01/03 07:32:30;;;;;;;45.28;22.98;;;;;;;3.82;100.00;102423.59;5020772;28;20036;-71
2023/01/03 07:34:55;;;;;;;50.38;22.70;;;;;;;3.86;100.00;102423.03;5013308;28;20968;-71
2023/01/03 07:37:20;;;;;;;46.08;21.45;;;;;;;3.85;100.00;102416.00;5015108;28;20036;-69
2023/01/03 07:39:45;;;;;;;46.67;22.45;;;;;;;3.91;100.00;102423.31;5012611;28;20040;-72
2023/01/03 07:44:55;;;;;;;;;;;;;;;3.96;100.00;102433.28;5016250;28;20167;-69
2023/01/03 07:47:20;;;;;;;42.95;19.05;;;;;;;3.98;100.00;102433.38;5018785;28;19920;-71
2023/01/03 07:49:45;;;;;;;38.83;20.35;;;;;;;4.00;100.00;102430.09;5024683;28;20033;-69
2023/01/03 07:52:11;;;;;;;39.75;19.58;;;;;;;4.00;100.00;102430.09;5025537;28;20025;-69
2023/01/03 07:54:36;;;;;;;40.60;19.95;;;;;;;4.05;100.00;102433.91;5025396;28;20414;-69
2023/01/03 07:57:02;;;;;;;40.38;20.77;;;;;;;4.10;100.00;102439.44;5024253;28;21486;-69
2023/01/03 07:59:27;;;;;;;41.50;19.40;;;;;;;4.15;100.00;102440.66;5030690;28;20136;-71
2023/01/03 08:01:52;;;;;;;42.35;20.13;;;;;;;4.22;100.00;102435.06;5028570;28;20488;-71
2023/01/03 08:04:18;;;;;;;46.63;20.50;;;;;;;4.25;100.00;102429.16;5028499;28;20389;-69
2023/01/03 08:06:43;;;;;;;44.88;19.55;;;;;;;4.28;100.00;102436.28;5028405;28;20442;-70
2023/01/03 08:14:37;;;;;;;39.13;19.15;;;;;;;4.46;100.00;102439.22;5025884;28;21482;-70
2023/01/03 08:17:03;;;;;;;49.42;19.70;;;;;;;4.47;100.00;102433.22;5031022;28;20474;-71
2023/01/03 08:19:28;;;;;;;52.83;21.40;;;;;;;4.49;100.00;102432.53;5026826;28;20037;-70
2023/01/03 08:21:53;;;;;;;41.67;20.92;;;;;;;4.52;100.00;102437.94;5024623;28;20493;-69
2023/01/03 08:24:19;;;;;;;46.92;21.40;;;;;;;4.56;100.00;102444.25;5025964;28;20068;-69
2023/01/03 08:26:44;;;;;;;43.38;20.92;;;;;;;4.61;100.00;102437.63;5024990;28;20114;-72
2023/01/03 08:29:10;;;;;;;53.20;22.75;;;;;;;4.66;100.00;102444.06;5024979;28;21634;-70
2023/01/03 08:31:41;;;;;;;46.40;22.33;;;;;;;4.73;100.00;102458.41;5022875;28;20017;-70
2023/01/03 08:34:10;;;;;;;54.63;23.00;;;;;;;4.77;100.00;102451.69;5027440;28;20033;-70
2023/01/03 08:36:41;;;;;;;57.35;23.75;;;;;;;4.84;100.00;102451.28;5031048;28;20037;-71
2023/01/03 08:39:14;;;;;;;63.50;24.02;;;;;;;4.86;100.00;102444.50;5029474;28;20029;-70
2023/01/03 08:41:45;;;;;;;56.33;23.13;;;;;;;4.90;100.00;102449.09;5033812;28;20030;-70
2023/01/03 08:44:10;;;;;;;61.30;25.60;;;;;;;4.92;100.00;102442.25;5029133;28;20303;-70
2023/01/03 08:46:41;;;;;;;59.33;24.80;;;;;;;4.94;100.00;102432.84;5029955;28;20838;-70
2023/01/03 08:49:08;;;;;;;63.90;23.85;;;;;;;4.96;100.00;102436.44;5030661;28;20045;-70
2023/01/03 08:51:34;;;;;;;62.75;25.17;;;;;;;5.00;100.00;102433.22;5031196;28;20029;-69
2023/01/03 08:53:59;;;;;;;60.97;25.30;;;;;;;5.07;100.00;102431.94;5031314;28;20068;-70
2023/01/03 08:56:24;;;;;;;63.53;27.55;;;;;;;5.09;100.00;102432.03;5031626;28;20048;-69
2023/01/03 08:58:50;;;;;;;59.85;24.65;;;;;;;5.13;100.00;102431.41;5028457;28;20042;-70
2023/01/03 09:01:16;;;;;;;64.38;25.92;;;;;;;5.16;100.00;102429.03;5029981;28;20055;-70
2023/01/03 09:03:41;;;;;;;64.30;28.35;;;;;;;5.21;100.00;102428.50;5031048;28;20075;-70
2023/01/03 09:06:06;;;;;;;67.65;27.20;;;;;;;5.22;100.00;102435.53;5029320;28;20033;-70
2023/01/03 09:08:33;;;;;;;69.07;27.88;;;;;;;5.28;100.00;102439.34;5028433;28;20044;-71
2023/01/03 09:11:04;;;;;;;71.00;26.25;;;;;;;5.29;100.00;102434.22;5042228;28;20404;-70
2023/01/03 09:13:30;;;;;;;62.92;25.85;;;;;;;5.36;100.00;102443.34;5031948;28;20108;-69
2023/01/03 09:16:09;;;;;;;65.13;27.10;;;;;;;5.38;100.00;102437.41;5030510;28;20124;-69
2023/01/03 09:18:36;;;;;;;67.13;27.48;;;;;;;5.43;100.00;102432.47;5028921;28;20032;-69
2023/01/03 09:21:02;;;;;;;69.60;27.45;;;;;;;5.48;100.00;102432.75;5029560;28;20436;-71
2023/01/03 09:23:28;;;;;;;59.30;26.08;;;;;;;5.51;100.00;102432.97;5031487;28;20032;-72
2023/01/03 09:25:53;;;;;;;72.82;27.58;;;;;;;5.53;100.00;102428.75;5026869;28;20045;-71
2023/01/03 09:28:19;;;;;;;63.05;26.05;;;;;;;5.54;100.00;102422.72;5038509;28;20022;-72
2023/01/03 09:30:44;;;;;;;60.00;26.65;;;;;;;5.58;100.00;102424.72;5028372;28;20029;-70
2023/01/03 09:33:10;;;;;;;66.13;27.25;;;;;;;5.64;100.00;102429.41;5041464;28;20025;-69
2023/01/03 09:35:36;;;;;;;60.85;26.90;;;;;;;5.67;100.00;102420.06;5033404;28;20040;-70
2023/01/03 09:38:01;;;;;;;71.70;27.58;;;;;;;5.71;100.00;102426.38;5033444;28;20669;-70
2023/01/03 09:40:29;;;;;;;70.30;26.67;;;;;;;5.75;100.00;102433.56;5025312;28;20082;-69
2023/01/03 09:43:14;;;;;;;55.60;25.92;;;;;;;5.83;100.00;102427.16;5024757;28;20048;-69
2023/01/03 09:45:48;;;;;;;56.70;25.48;;;;;;;5.87;100.00;102428.22;5024921;28;20086;-69
2023/01/03 09:48:16;;;;;;;61.28;27.58;;;;;;;5.96;100.00;102433.13;5022251;28;20789;-71
2023/01/03 09:50:44;;;;;;;49.15;24.10;;;;;;;5.96;100.00;102438.34;5027636;28;20085;-70
2023/01/03 10:05:08;;;;;;;57.38;22.02;;;;;;;6.22;100.00;102445.19;5034540;28;20048;-70
2023/01/03 10:07:42;;;;;;;49.60;23.88;;;;;;;6.28;100.00;102448.16;5037083;28;20041;-69
2023/01/03 10:10:31;;;;;;;42.78;21.63;;;;;;;6.34;100.00;102437.19;5042879;28;20025;-70
2023/01/03 10:13:27;;;;;;;46.20;20.92;;;;;;;6.37;100.00;102442.56;5030710;28;20420;-71
2023/01/03 10:16:08;;;;;;;48.13;20.42;;;;;;;6.41;100.00;102439.34;5035041;28;20025;-70
2023/01/03 10:18:47;;;;;;;41.25;21.70;;;;;;;6.47;100.00;102442.31;5031514;28;20112;-70
2023/01/03 10:21:26;;;;;;;38.28;19.77;;;;;;;6.45;100.00;102441.31;5039081;28;20063;-71
2023/01/03 10:23:53;;;;;;;48.35;20.00;;;;;;;6.45;100.00;102441.31;5028684;28;20030;-70
2023/01/03 10:26:20;;;;;;;40.58;19.63;;;;;;;6.48;100.00;102448.44;5028837;28;20055;-70
2023/01/03 10:28:46;;;;;;;38.80;19.00;;;;;;;6.54;100.00;102454.06;5029392;28;20037;-69
2023/01/03 10:31:24;;;;;;;39.08;18.52;;;;;;;6.53;100.00;102455.75;5036917;28;20116;-70
2023/01/03 10:33:49;;;;;;;42.80;19.35;;;;;;;6.55;100.00;102458.44;5033869;28;20053;-71
2023/01/03 10:36:18;;;;;;;49.80;21.00;;;;;;;6.54;100.00;102456.66;5034859;28;20072;-70
2023/01/03 10:38:44;;;;;;;37.83;19.70;;;;;;;6.56;100.00;102460.25;5033586;28;20030;-69
2023/01/03 10:41:30;;;;;;;37.83;19.40;;;;;;;6.61;100.00;102448.34;5034821;28;20481;-69
2023/01/03 10:43:58;;;;;;;47.55;18.42;;;;;;;6.57;100.00;102452.50;5030624;28;20112;-68
2023/01/03 10:46:25;;;;;;;45.97;19.05;;;;;;;6.60;100.00;102462.25;5044065;28;20528;-70
2023/01/03 10:48:53;;;;;;;41.63;19.35;;;;;;;6.58;100.00;102451.69;5043813;28;20021;-70
2023/01/03 10:51:27;;;;;;;37.63;19.02;;;;;;;6.64;100.00;102453.75;5037731;28;20155;-70
2023/01/03 10:53:56;;;;;;;41.95;19.00;;;;;;;6.66;100.00;102446.91;5029948;28;20354;-70
2023/01/03 10:56:23;;;;;;;42.50;20.17;;;;;;;6.67;100.00;102451.31;5035379;28;20025;-71
2023/01/03 10:59:14;;;;;;;42.97;20.65;;;;;;;6.69;100.00;102447.09;5038269;28;20045;-70
2023/01/03 11:01:55;;;;;;;42.13;19.60;;;;;;;6.70;100.00;102443.66;5041178;28;20469;-69
2023/01/03 11:04:21;;;;;;;45.40;20.05;;;;;;;6.70;100.00;102441.06;5035783;28;20026;-69
2023/01/03 11:07:08;;;;;;;36.33;20.55;;;;;;;6.74;100.00;102440.41;5042208;28;20041;-70
2023/01/03 11:09:51;;;;;;;34.67;18.48;;;;;;;6.82;100.00;102432.09;5037749;28;20112;-70
2023/01/03 11:12:27;;;;;;;48.90;21.02;;;;;;;6.90;100.00;102430.81;5031796;28;20030;-73
2023/01/03 11:14:55;;;;;;;38.40;18.02;;;;;;;6.90;100.00;102426.50;5033742;28;20026;-70
2023/01/03 11:17:21;;;;;;;34.35;17.77;;;;;;;6.94;100.00;102421.44;5035669;28;20105;-72
2023/01/03 11:19:48;;;;;;;36.83;18.25;;;;;;;7.05;100.00;102428.16;5030751;28;20029;-71
2023/01/03 11:22:44;;;;;;;29.33;18.17;;;;;;;7.02;100.00;102426.28;5037487;28;20041;-73
2023/01/03 11:25:52;;;;;;;36.38;16.52;;;;;;;7.03;100.00;102427.19;5035171;28;20031;-69
2023/01/03 11:28:29;;;;;;;33.88;16.38;;;;;;;7.06;100.00;102432.59;5029018;28;20033;-71
2023/01/03 11:31:15;;;;;;;29.90;16.02;;;;;;;7.07;100.00;102414.34;5041415;28;20052;-70
2023/01/03 11:34:08;;;;;;;34.50;16.80;;;;;;;7.07;100.00;102414.34;5034197;28;20072;-69
2023/01/03 11:36:44;;;;;;;34.55;16.35;;;;;;;7.12;100.00;102405.88;5031817;28;20116;-69
2023/01/03 11:39:15;;;;;;;30.00;16.25;;;;;;;7.13;100.00;102407.69;5036788;28;20115;-70
2023/01/03 11:41:56;;;;;;;27.77;14.30;;;;;;;7.16;100.00;102406.13;5028712;28;20162;-69
2023/01/03 11:45:07;;;;;;;26.00;14.85;;;;;;;7.20;100.00;102399.34;5030707;28;20120;-71
2023/01/03 11:47:47;;;;;;;37.30;16.48;;;;;;;7.28;100.00;102403.28;5033046;28;20081;-71
2023/01/03 11:50:31;;;;;;;26.25;14.25;;;;;;;7.31;100.00;102397.31;5040125;28;20840;-71
2023/01/03 11:53:21;;;;;;;22.45;12.45;;;;;;;7.32;100.00;102394.78;5062083;28;20032;-71
2023/01/03 11:56:07;;;;;;;27.80;12.63;;;;;;;7.37;100.00;102395.03;5034426;28;20036;-72
2023/01/03 11:58:59;;;;;;;25.30;12.57;;;;;;;7.40;100.00;102388.22;5028579;28;20121;-69
2023/01/03 12:01:35;;;;;;;21.30;11.07;;;;;;;7.46;100.00;102397.25;5031535;28;20029;-72
2023/01/03 12:04:23;;;;;;;22.85;11.32;;;;;;;7.47;100.00;102383.34;5032323;28;20095;-72
2023/01/03 12:07:07;;;;;;;17.70;10.88;;;;;;;7.47;100.00;102379.00;5036110;28;20018;-71
2023/01/03 12:09:38;;;;;;;21.67;11.05;;;;;;;7.52;100.00;102368.78;5022138;28;20041;-72
2023/01/03 12:12:28;;;;;;;16.85;10.63;;;;;;;7.53;100.00;102373.22;5018198;28;20096;-72
2023/01/03 12:14:59;;;;;;;19.98;9.98;;;;;;;7.51;100.00;102380.06;5017476;28;20044;-71
2023/01/03 12:17:36;;;;;;;21.60;9.45;;;;;;;7.50;100.00;102378.25;5030587;28;20108;-71
2023/01/03 12:20:10;;;;;;;14.95;9.85;;;;;;;7.55;100.00;102366.31;5036654;28;20373;-70
2023/01/03 12:22:41;;;;;;;26.42;10.27;;;;;;;7.62;100.00;102364.94;5026590;28;20025;-69
2023/01/03 12:25:24;;;;;;;18.58;9.25;;;;;;;7.74;100.00;102361.22;5032964;28;20060;-71
2023/01/03 12:27:55;;;;;;;19.02;10.18;;;;;;;7.83;100.00;102373.03;5033517;28;20036;-69